createdAt,value
2018-05-29T00:01:01.596Z,53.30
2018-05-29T00:02:06.556Z,53.30
2018-05-29T00:03:11.344Z,53.30
2018-05-29T00:04:16.054Z,53.30
2018-05-29T00:05:21.125Z,53.30
2018-05-29T00:06:26.198Z,53.30
2018-05-29T00:07:31.163Z,53.30
2018-05-29T00:08:36.196Z,53.30
2018-05-29T00:09:40.929Z,53.90
2018-05-29T00:10:45.658Z,53.30
2018-05-29T00:11:50.644Z,53.30
2018-05-29T00:12:55.517Z,53.30
2018-05-29T00:14:00.178Z,53.30
2018-05-29T00:15:04.927Z,53.30
2018-05-29T00:16:09.667Z,53.30
2018-05-29T00:17:14.548Z,53.30
2018-05-29T00:18:20.157Z,53.30
2018-05-29T00:19:25.117Z,53.30
2018-05-29T00:20:29.942Z,53.30
2018-05-29T00:21:34.763Z,53.30
2018-05-29T00:22:39.751Z,53.90
2018-05-29T00:23:44.713Z,53.30
2018-05-29T00:24:49.724Z,53.30
2018-05-29T00:25:54.589Z,53.20
2018-05-29T00:26:59.408Z,53.30
2018-05-29T00:28:04.093Z,53.30
2018-05-29T00:29:09.017Z,53.30
2018-05-29T00:30:13.919Z,53.30
2018-05-29T00:31:18.924Z,53.20
2018-05-29T00:32:23.818Z,53.30
2018-05-29T00:33:28.707Z,53.20
2018-05-29T00:34:33.704Z,53.20
2018-05-29T00:35:38.582Z,53.20
2018-05-29T00:36:43.399Z,53.20
2018-05-29T00:37:48.311Z,53.20
2018-05-29T00:38:53.512Z,53.20
2018-05-29T00:39:58.164Z,53.20
2018-05-29T00:41:03.155Z,53.20
2018-05-29T00:42:08.362Z,53.20
2018-05-29T00:43:13.152Z,53.20
2018-05-29T00:44:17.955Z,53.20
2018-05-29T00:45:22.632Z,53.30
2018-05-29T00:46:27.188Z,53.20
2018-05-29T00:47:31.830Z,53.20
2018-05-29T00:48:36.435Z,53.20
2018-05-29T00:49:41.102Z,53.20
2018-05-29T00:50:45.895Z,53.20
2018-05-29T00:51:50.760Z,53.20
2018-05-29T00:52:55.594Z,53.20
2018-05-29T00:54:00.431Z,53.20
2018-05-29T00:55:05.468Z,53.20
2018-05-29T00:56:10.577Z,53.20
2018-05-29T00:57:15.232Z,53.20
2018-05-29T00:58:20.084Z,53.20
2018-05-29T00:59:25.005Z,53.20
2018-05-29T01:00:29.784Z,53.20
2018-05-29T01:01:34.728Z,53.20
2018-05-29T01:02:39.649Z,53.20
2018-05-29T01:03:44.369Z,53.20
2018-05-29T01:04:49.327Z,53.20
2018-05-29T01:05:54.082Z,53.20
2018-05-29T01:06:58.816Z,53.20
2018-05-29T01:08:03.594Z,53.30
2018-05-29T01:09:08.897Z,53.20
2018-05-29T01:10:13.511Z,53.20
2018-05-29T01:11:18.083Z,53.20
2018-05-29T01:12:22.976Z,53.10
2018-05-29T01:13:27.866Z,53.20
2018-05-29T01:14:32.648Z,53.10
2018-05-29T01:15:37.446Z,53.20
2018-05-29T01:16:42.536Z,53.20
2018-05-29T01:17:47.352Z,53.20
2018-05-29T01:18:52.212Z,53.10
2018-05-29T01:19:57.107Z,53.10
2018-05-29T01:21:02.199Z,53.10
2018-05-29T01:22:07.230Z,53.10
2018-05-29T01:23:12.045Z,53.10
2018-05-29T01:24:16.724Z,53.10
2018-05-29T01:25:21.361Z,53.10
2018-05-29T01:26:25.957Z,53.20
2018-05-29T01:27:30.605Z,53.10
2018-05-29T01:28:35.429Z,53.20
2018-05-29T01:29:40.101Z,53.20
2018-05-29T01:30:44.757Z,53.10
2018-05-29T01:31:49.535Z,53.20
2018-05-29T01:32:54.282Z,53.20
2018-05-29T01:33:59.113Z,53.20
2018-05-29T01:35:03.818Z,53.20
2018-05-29T01:36:08.581Z,53.20
2018-05-29T01:37:13.287Z,53.10
2018-05-29T01:38:18.204Z,53.10
2018-05-29T01:39:23.127Z,53.20
2018-05-29T01:40:27.818Z,53.20
2018-05-29T01:41:32.797Z,53.20
2018-05-29T01:42:37.701Z,53.20
2018-05-29T01:43:42.701Z,53.20
2018-05-29T01:44:47.494Z,53.20
2018-05-29T01:45:52.304Z,53.10
2018-05-29T01:46:57.250Z,53.30
2018-05-29T01:48:02.211Z,53.20
2018-05-29T01:49:07.113Z,53.20
2018-05-29T01:50:11.965Z,53.20
2018-05-29T01:51:16.637Z,53.20
2018-05-29T01:52:21.459Z,53.10
2018-05-29T01:53:26.433Z,53.20
2018-05-29T01:54:31.240Z,53.10
2018-05-29T01:55:36.036Z,53.20
2018-05-29T01:56:40.845Z,53.20
2018-05-29T01:57:45.761Z,53.20
2018-05-29T01:58:50.545Z,53.20
2018-05-29T01:59:55.298Z,53.10
2018-05-29T02:01:00.256Z,53.10
2018-05-29T02:02:05.058Z,53.10
2018-05-29T02:03:10.089Z,53.10
2018-05-29T02:04:14.942Z,53.10
2018-05-29T02:05:19.939Z,53.10
2018-05-29T02:06:24.720Z,53.10
2018-05-29T02:07:29.415Z,53.10
2018-05-29T02:08:34.223Z,53.10
2018-05-29T02:09:39.186Z,53.10
2018-05-29T02:10:43.840Z,53.10
2018-05-29T02:11:48.837Z,53.10
2018-05-29T02:12:53.522Z,53.20
2018-05-29T02:13:58.439Z,53.20
2018-05-29T02:15:03.246Z,53.20
2018-05-29T02:16:08.338Z,53.20
2018-05-29T02:17:13.079Z,53.30
2018-05-29T02:18:17.844Z,53.20
2018-05-29T02:19:22.632Z,53.30
2018-05-29T02:20:27.418Z,53.20
2018-05-29T02:21:32.258Z,53.30
2018-05-29T02:22:37.527Z,53.30
2018-05-29T02:23:42.550Z,53.30
2018-05-29T02:24:47.244Z,53.20
2018-05-29T02:25:52.046Z,53.30
2018-05-29T02:26:56.812Z,53.30
2018-05-29T02:28:01.597Z,53.30
2018-05-29T02:29:06.200Z,53.30
2018-05-29T02:30:10.988Z,53.30
2018-05-29T02:31:15.820Z,53.30
2018-05-29T02:32:20.523Z,53.30
2018-05-29T02:33:25.494Z,53.30
2018-05-29T02:34:30.307Z,53.30
2018-05-29T02:35:35.135Z,53.40
2018-05-29T02:36:39.771Z,53.30
2018-05-29T02:37:44.568Z,53.40
2018-05-29T02:38:49.451Z,53.30
2018-05-29T02:39:54.203Z,53.30
2018-05-29T02:40:59.025Z,53.30
2018-05-29T02:42:03.918Z,53.30
2018-05-29T02:43:08.827Z,53.30
2018-05-29T02:44:13.673Z,53.30
2018-05-29T02:45:18.275Z,53.30
2018-05-29T02:46:23.129Z,53.30
2018-05-29T02:47:27.815Z,53.30
2018-05-29T02:48:33.056Z,53.30
2018-05-29T02:49:38.143Z,53.30
2018-05-29T02:50:43.062Z,53.30
2018-05-29T02:51:47.777Z,53.30
2018-05-29T02:52:52.630Z,53.30
2018-05-29T02:53:57.245Z,53.30
2018-05-29T02:55:02.061Z,53.30
2018-05-29T02:56:06.784Z,53.30
2018-05-29T02:57:11.703Z,53.30
2018-05-29T02:58:18.161Z,53.40
2018-05-29T02:59:22.972Z,53.30
2018-05-29T03:00:27.888Z,53.40
2018-05-29T03:01:32.637Z,53.30
2018-05-29T03:02:37.400Z,53.40
2018-05-29T03:03:42.052Z,53.30
2018-05-29T03:04:47.000Z,53.40
2018-05-29T03:05:51.670Z,53.40
2018-05-29T03:06:56.375Z,53.30
2018-05-29T03:08:01.320Z,53.40
2018-05-29T03:09:06.130Z,53.40
2018-05-29T03:10:10.913Z,53.30
2018-05-29T03:11:16.240Z,53.30
2018-05-29T03:12:21.296Z,53.30
2018-05-29T03:13:26.263Z,53.40
2018-05-29T03:14:31.110Z,53.30
2018-05-29T03:15:35.853Z,53.30
2018-05-29T03:16:40.528Z,53.30
2018-05-29T03:17:45.479Z,53.40
2018-05-29T03:18:50.390Z,53.40
2018-05-29T03:19:55.350Z,53.30
2018-05-29T03:21:00.190Z,53.30
2018-05-29T03:22:05.284Z,53.30
2018-05-29T03:23:10.096Z,53.30
2018-05-29T03:24:15.091Z,53.30
2018-05-29T03:25:20.170Z,53.30
2018-05-29T03:26:25.127Z,53.30
2018-05-29T03:27:29.856Z,53.30
2018-05-29T03:28:34.604Z,53.30
2018-05-29T03:29:39.378Z,53.40
2018-05-29T03:30:44.490Z,53.30
2018-05-29T03:31:50.425Z,53.30
2018-05-29T03:32:55.289Z,53.30
2018-05-29T03:34:00.327Z,53.30
2018-05-29T03:35:05.408Z,53.30
2018-05-29T03:36:10.259Z,54.00
2018-05-29T03:37:15.115Z,53.30
2018-05-29T03:38:20.134Z,53.30
2018-05-29T03:39:25.040Z,53.30
2018-05-29T03:40:29.758Z,53.30
2018-05-29T03:41:34.529Z,53.30
2018-05-29T03:42:39.348Z,53.30
2018-05-29T03:43:44.340Z,53.30
2018-05-29T03:44:49.375Z,53.30
2018-05-29T03:45:54.408Z,53.30
2018-05-29T03:46:59.427Z,53.30
2018-05-29T03:48:04.480Z,53.30
2018-05-29T03:49:09.167Z,53.30
2018-05-29T03:50:14.028Z,53.30
2018-05-29T03:51:18.938Z,53.90
2018-05-29T03:52:23.668Z,53.30
2018-05-29T03:53:28.499Z,53.30
2018-05-29T03:54:33.346Z,53.30
2018-05-29T03:55:38.167Z,53.30
2018-05-29T03:56:42.786Z,53.30
2018-05-29T03:57:47.338Z,53.30
2018-05-29T03:58:52.400Z,53.30
2018-05-29T03:59:57.432Z,53.30
2018-05-29T04:01:02.364Z,53.30
2018-05-29T04:02:07.146Z,53.30
2018-05-29T04:03:12.313Z,53.30
2018-05-29T04:04:17.590Z,53.30
2018-05-29T04:05:22.390Z,53.30
2018-05-29T04:06:27.260Z,53.30
2018-05-29T04:07:32.216Z,53.30
2018-05-29T04:08:37.088Z,53.30
2018-05-29T04:09:42.027Z,53.30
2018-05-29T04:10:47.158Z,53.30
2018-05-29T04:11:51.811Z,53.30
2018-05-29T04:12:56.814Z,53.20
2018-05-29T04:14:01.669Z,53.30
2018-05-29T04:15:06.550Z,53.30
2018-05-29T04:16:11.191Z,53.20
2018-05-29T04:17:16.264Z,53.30
2018-05-29T04:18:21.319Z,53.20
2018-05-29T04:19:26.366Z,53.30
2018-05-29T04:20:31.202Z,53.20
2018-05-29T04:21:35.936Z,53.30
2018-05-29T04:22:40.728Z,53.30
2018-05-29T04:23:45.707Z,53.20
2018-05-29T04:24:50.537Z,53.20
2018-05-29T04:25:55.470Z,53.20
2018-05-29T04:27:00.357Z,53.20
2018-05-29T04:28:05.176Z,53.20
2018-05-29T04:29:10.094Z,53.20
2018-05-29T04:30:15.057Z,53.30
2018-05-29T04:31:19.893Z,53.20
2018-05-29T04:32:24.793Z,53.30
2018-05-29T04:33:29.560Z,53.20
2018-05-29T04:34:34.228Z,53.20
2018-05-29T04:35:38.963Z,53.20
2018-05-29T04:36:43.742Z,53.20
2018-05-29T04:37:48.383Z,53.20
2018-05-29T04:38:53.154Z,53.30
2018-05-29T04:39:57.711Z,53.30
2018-05-29T04:41:02.563Z,53.30
2018-05-29T04:42:07.413Z,53.20
2018-05-29T04:43:12.202Z,53.20
2018-05-29T04:44:16.807Z,53.30
2018-05-29T04:45:21.607Z,53.30
2018-05-29T04:46:27.143Z,53.20
2018-05-29T04:47:31.792Z,53.20
2018-05-29T04:48:36.581Z,53.30
2018-05-29T04:49:41.643Z,53.20
2018-05-29T04:50:46.337Z,53.20
2018-05-29T04:51:51.262Z,53.20
2018-05-29T04:52:56.054Z,53.20
2018-05-29T04:54:00.707Z,53.20
2018-05-29T04:55:05.378Z,53.20
2018-05-29T04:56:10.205Z,53.20
2018-05-29T04:57:15.107Z,53.20
2018-05-29T04:58:20.116Z,53.20
2018-05-29T04:59:24.715Z,53.20
2018-05-29T05:00:29.595Z,53.20
2018-05-29T05:01:34.592Z,53.30
2018-05-29T05:02:39.495Z,53.20
2018-05-29T05:03:44.333Z,53.30
2018-05-29T05:04:49.089Z,53.20
2018-05-29T05:05:53.874Z,53.20
2018-05-29T05:06:58.541Z,53.20
2018-05-29T05:08:03.158Z,53.20
2018-05-29T05:09:08.051Z,53.20
2018-05-29T05:10:13.018Z,53.20
2018-05-29T05:11:17.767Z,53.20
2018-05-29T05:12:22.534Z,53.20
2018-05-29T05:13:27.123Z,53.20
2018-05-29T05:14:32.530Z,53.20
2018-05-29T05:15:37.344Z,53.10
2018-05-29T05:16:42.214Z,53.20
2018-05-29T05:17:46.963Z,53.10
2018-05-29T05:18:51.908Z,53.20
2018-05-29T05:19:56.671Z,53.10
2018-05-29T05:21:01.771Z,53.20
2018-05-29T05:22:06.587Z,53.20
2018-05-29T05:23:11.201Z,53.20
2018-05-29T05:24:16.223Z,53.20
2018-05-29T05:25:20.997Z,53.20
2018-05-29T05:26:25.795Z,53.10
2018-05-29T05:27:30.524Z,53.10
2018-05-29T05:28:35.172Z,53.20
2018-05-29T05:29:40.132Z,53.20
2018-05-29T05:30:45.109Z,53.10
2018-05-29T05:31:50.071Z,53.10
2018-05-29T05:32:54.957Z,53.10
2018-05-29T05:33:59.993Z,53.10
2018-05-29T05:35:04.885Z,53.10
2018-05-29T05:36:09.522Z,53.10
2018-05-29T05:37:14.425Z,53.10
2018-05-29T05:38:19.393Z,53.10
2018-05-29T05:39:24.569Z,53.20
2018-05-29T05:40:29.163Z,53.10
2018-05-29T05:41:34.131Z,53.10
2018-05-29T05:42:38.832Z,53.10
2018-05-29T05:43:43.531Z,53.10
2018-05-29T05:44:48.572Z,53.10
2018-05-29T05:45:53.259Z,53.10
2018-05-29T05:46:58.185Z,53.10
2018-05-29T05:48:02.812Z,53.10
2018-05-29T05:49:07.638Z,53.10
2018-05-29T05:50:12.249Z,53.10
2018-05-29T05:51:16.858Z,53.10
2018-05-29T05:52:21.695Z,53.10
2018-05-29T05:53:26.701Z,53.10
2018-05-29T05:54:31.338Z,53.10
2018-05-29T05:55:36.172Z,53.10
2018-05-29T05:56:41.018Z,53.20
2018-05-29T05:57:45.701Z,53.20
2018-05-29T05:58:50.669Z,53.20
2018-05-29T05:59:55.448Z,53.20
2018-05-29T06:01:00.407Z,53.20
2018-05-29T06:02:05.314Z,53.20
2018-05-29T06:03:10.045Z,53.20
2018-05-29T06:04:15.715Z,53.20
2018-05-29T06:05:20.580Z,53.20
2018-05-29T06:06:25.359Z,53.30
2018-05-29T06:07:30.122Z,53.30
2018-05-29T06:08:35.027Z,53.30
2018-05-29T06:09:39.901Z,53.30
2018-05-29T06:10:44.738Z,53.30
2018-05-29T06:11:49.683Z,53.30
2018-05-29T06:12:54.696Z,53.30
2018-05-29T06:13:59.355Z,53.20
2018-05-29T06:15:04.975Z,53.20
2018-05-29T06:16:09.736Z,53.20
2018-05-29T06:17:14.745Z,53.20
2018-05-29T06:18:19.535Z,53.20
2018-05-29T06:19:24.556Z,53.20
2018-05-29T06:20:29.206Z,53.20
2018-05-29T06:21:34.088Z,53.20
2018-05-29T06:22:38.866Z,53.20
2018-05-29T06:23:44.584Z,53.20
2018-05-29T06:24:49.385Z,53.30
2018-05-29T06:25:54.188Z,53.20
2018-05-29T06:26:59.382Z,53.20
2018-05-29T06:28:04.076Z,53.20
2018-05-29T06:29:09.298Z,53.30
2018-05-29T06:30:14.288Z,53.20
2018-05-29T06:31:19.297Z,53.20
2018-05-29T06:32:24.232Z,53.20
2018-05-29T06:33:28.952Z,53.20
2018-05-29T06:34:33.759Z,53.20
2018-05-29T06:35:38.705Z,53.20
2018-05-29T06:36:44.611Z,53.20
2018-05-29T06:37:50.054Z,53.20
2018-05-29T06:38:54.934Z,53.20
2018-05-29T06:40:00.686Z,53.20
2018-05-29T06:41:05.405Z,53.20
2018-05-29T06:42:10.145Z,53.10
2018-05-29T06:43:15.130Z,53.20
2018-05-29T06:44:20.116Z,53.20
2018-05-29T06:45:25.065Z,53.20
2018-05-29T06:46:29.663Z,53.10
2018-05-29T06:47:35.172Z,53.10
2018-05-29T06:48:39.964Z,53.10
2018-05-29T06:49:44.622Z,53.20
2018-05-29T06:50:49.241Z,53.10
2018-05-29T06:51:54.220Z,53.10
2018-05-29T06:52:59.288Z,53.10
2018-05-29T06:54:04.000Z,53.10
2018-05-29T06:55:08.671Z,53.10
2018-05-29T06:56:13.312Z,53.10
2018-05-29T06:57:18.156Z,53.10
2018-05-29T06:58:22.848Z,53.00
2018-05-29T06:59:28.194Z,53.00
2018-05-29T07:00:32.904Z,53.00
2018-05-29T07:01:37.718Z,53.00
2018-05-29T07:02:42.512Z,53.10
2018-05-29T07:03:47.392Z,53.00
2018-05-29T07:04:52.049Z,53.00
2018-05-29T07:05:56.995Z,53.00
2018-05-29T07:07:01.975Z,53.00
2018-05-29T07:08:06.951Z,53.00
2018-05-29T07:09:11.801Z,53.10
2018-05-29T07:10:17.253Z,53.10
2018-05-29T07:11:22.264Z,53.20
2018-05-29T07:12:26.971Z,53.00
2018-05-29T07:13:31.790Z,53.10
2018-05-29T07:14:36.651Z,53.10
2018-05-29T07:15:41.397Z,53.10
2018-05-29T07:16:46.171Z,53.10
2018-05-29T07:17:51.056Z,53.10
2018-05-29T07:18:55.847Z,53.10
2018-05-29T07:20:00.734Z,53.20
2018-05-29T07:21:05.354Z,53.10
2018-05-29T07:22:10.145Z,53.10
2018-05-29T07:23:15.112Z,53.10
2018-05-29T07:24:20.002Z,53.10
2018-05-29T07:25:24.897Z,53.10
2018-05-29T07:26:29.503Z,53.10
2018-05-29T07:27:34.227Z,53.10
2018-05-29T07:28:38.909Z,53.10
2018-05-29T07:29:43.819Z,53.10
2018-05-29T07:30:48.599Z,53.10
2018-05-29T07:31:53.391Z,53.10
2018-05-29T07:32:58.477Z,53.10
2018-05-29T07:34:03.322Z,53.10
2018-05-29T07:35:08.005Z,53.10
2018-05-29T07:36:12.743Z,53.00
2018-05-29T07:37:17.521Z,53.10
2018-05-29T07:38:22.579Z,53.00
2018-05-29T07:39:27.433Z,53.00
2018-05-29T07:40:32.343Z,53.10
2018-05-29T07:41:37.322Z,53.00
2018-05-29T07:42:42.081Z,53.00
2018-05-29T07:43:47.083Z,53.00
2018-05-29T07:44:51.975Z,53.00
2018-05-29T07:45:56.757Z,53.10
2018-05-29T07:47:01.399Z,53.00
2018-05-29T07:48:06.042Z,53.00
2018-05-29T07:49:10.777Z,53.00
2018-05-29T07:50:15.618Z,53.00
2018-05-29T07:51:20.641Z,53.00
2018-05-29T07:52:25.399Z,53.00
2018-05-29T07:53:30.272Z,53.00
2018-05-29T07:54:34.889Z,53.00
2018-05-29T07:55:39.712Z,53.00
2018-05-29T07:56:45.044Z,53.00
2018-05-29T07:57:50.294Z,53.10
2018-05-29T07:58:55.158Z,53.00
2018-05-29T08:00:00.241Z,53.00
2018-05-29T08:01:05.139Z,53.00
2018-05-29T08:02:09.695Z,53.00
2018-05-29T08:03:14.442Z,53.10
2018-05-29T08:04:19.043Z,53.00
2018-05-29T08:05:23.726Z,53.10
2018-05-29T08:06:28.740Z,53.10
2018-05-29T08:07:33.329Z,53.10
2018-05-29T08:08:38.262Z,53.10
2018-05-29T08:09:43.142Z,53.10
2018-05-29T08:10:47.895Z,53.00
2018-05-29T08:11:52.721Z,53.00
2018-05-29T08:12:57.525Z,53.00
2018-05-29T08:14:02.473Z,53.10
2018-05-29T08:15:07.298Z,53.00
2018-05-29T08:16:12.012Z,53.00
2018-05-29T08:17:17.043Z,53.00
2018-05-29T08:18:22.225Z,53.00
2018-05-29T08:19:27.091Z,53.00
2018-05-29T08:20:31.957Z,53.00
2018-05-29T08:21:36.739Z,53.00
2018-05-29T08:22:41.569Z,53.00
2018-05-29T08:23:46.383Z,53.00
2018-05-29T08:24:51.228Z,52.90
2018-05-29T08:25:56.395Z,53.00
2018-05-29T08:27:01.348Z,53.00
2018-05-29T08:28:06.270Z,53.00
2018-05-29T08:29:11.287Z,52.90
2018-05-29T08:30:16.300Z,52.90
2018-05-29T08:31:20.978Z,52.90
2018-05-29T08:32:25.810Z,52.90
2018-05-29T08:33:30.592Z,52.90
2018-05-29T08:34:35.612Z,52.90
2018-05-29T08:35:40.248Z,52.90
2018-05-29T08:36:45.043Z,52.90
2018-05-29T08:37:49.907Z,52.80
2018-05-29T08:38:54.878Z,52.80
2018-05-29T08:39:59.681Z,52.90
2018-05-29T08:41:04.508Z,52.90
2018-05-29T08:42:09.487Z,52.90
2018-05-29T08:43:14.418Z,52.90
2018-05-29T08:44:19.936Z,52.80
2018-05-29T08:45:24.937Z,52.80
2018-05-29T08:46:29.812Z,52.80
2018-05-29T08:47:34.570Z,52.90
2018-05-29T08:48:39.383Z,52.80
2018-05-29T08:49:44.180Z,52.90
2018-05-29T08:50:49.524Z,52.80
2018-05-29T08:51:54.951Z,52.90
2018-05-29T08:52:59.929Z,52.80
2018-05-29T08:54:04.842Z,52.90
2018-05-29T08:55:09.648Z,52.80
2018-05-29T08:56:14.304Z,52.80
2018-05-29T08:57:19.217Z,52.80
2018-05-29T08:58:24.152Z,52.90
2018-05-29T08:59:29.564Z,52.90
2018-05-29T09:00:34.486Z,53.00
2018-05-29T09:01:39.496Z,53.00
2018-05-29T09:02:44.298Z,52.90
2018-05-29T09:03:48.911Z,52.90
2018-05-29T09:04:53.558Z,52.80
2018-05-29T09:05:58.353Z,52.80
2018-05-29T09:07:03.167Z,52.80
2018-05-29T09:08:07.948Z,52.80
2018-05-29T09:09:13.359Z,52.70
2018-05-29T09:10:18.180Z,52.90
2018-05-29T09:11:23.021Z,52.80
2018-05-29T09:12:27.721Z,52.70
2018-05-29T09:13:32.690Z,52.70
2018-05-29T09:14:37.682Z,52.70
2018-05-29T09:15:42.615Z,52.70
2018-05-29T09:16:47.410Z,52.70
2018-05-29T09:17:52.067Z,52.70
2018-05-29T09:18:56.758Z,52.70
2018-05-29T09:20:01.783Z,52.70
2018-05-29T09:21:06.393Z,52.70
2018-05-29T09:22:11.511Z,52.70
2018-05-29T09:23:16.464Z,52.70
2018-05-29T09:24:21.617Z,52.60
2018-05-29T09:25:26.600Z,52.70
2018-05-29T09:26:31.532Z,52.60
2018-05-29T09:27:36.770Z,52.60
2018-05-29T09:28:41.597Z,52.60
2018-05-29T09:29:46.695Z,52.60
2018-05-29T09:30:51.473Z,52.60
2018-05-29T09:31:56.182Z,52.60
2018-05-29T09:33:01.011Z,52.60
2018-05-29T09:34:05.780Z,52.70
2018-05-29T09:35:10.548Z,52.60
2018-05-29T09:36:15.353Z,52.60
2018-05-29T09:37:21.384Z,52.70
2018-05-29T09:38:26.267Z,52.70
2018-05-29T09:39:31.260Z,52.60
2018-05-29T09:40:36.176Z,52.60
2018-05-29T09:41:40.941Z,52.60
2018-05-29T09:42:45.660Z,52.80
2018-05-29T09:43:50.637Z,52.80
2018-05-29T09:44:55.651Z,52.80
2018-05-29T09:46:00.386Z,52.70
2018-05-29T09:47:04.986Z,52.70
2018-05-29T09:48:09.653Z,52.60
2018-05-29T09:49:14.429Z,52.60
2018-05-29T09:50:19.461Z,52.60
2018-05-29T09:51:24.177Z,52.50
2018-05-29T09:52:28.954Z,52.50
2018-05-29T09:53:33.963Z,52.50
2018-05-29T09:54:38.822Z,52.50
2018-05-29T09:55:43.600Z,52.50
2018-05-29T09:56:48.572Z,52.50
2018-05-29T09:57:53.360Z,52.50
2018-05-29T09:58:58.131Z,52.50
2018-05-29T10:00:03.155Z,52.40
2018-05-29T10:01:08.116Z,52.40
2018-05-29T10:02:12.785Z,52.40
2018-05-29T10:03:17.501Z,52.50
2018-05-29T10:04:22.115Z,52.50
2018-05-29T10:05:26.769Z,52.50
2018-05-29T10:06:31.481Z,52.50
2018-05-29T10:07:36.460Z,52.50
2018-05-29T10:08:41.254Z,52.50
2018-05-29T10:09:46.229Z,52.50
2018-05-29T10:10:50.986Z,52.40
2018-05-29T10:11:55.577Z,52.50
2018-05-29T10:13:00.322Z,52.50
2018-05-29T10:14:05.341Z,52.50
2018-05-29T10:15:10.144Z,52.50
2018-05-29T10:16:14.915Z,52.50
2018-05-29T10:17:19.711Z,52.40
2018-05-29T10:18:24.713Z,52.50
2018-05-29T10:19:29.502Z,52.40
2018-05-29T10:20:34.160Z,52.50
2018-05-29T10:21:39.186Z,52.50
2018-05-29T10:22:43.835Z,52.50
2018-05-29T10:23:48.650Z,52.50
2018-05-29T10:24:53.372Z,52.50
2018-05-29T10:25:58.197Z,52.50
2018-05-29T10:27:03.193Z,52.60
2018-05-29T10:28:08.033Z,52.60
2018-05-29T10:29:12.877Z,52.60
2018-05-29T10:30:17.684Z,52.60
2018-05-29T10:31:22.564Z,52.60
2018-05-29T10:32:27.253Z,52.60
2018-05-29T10:33:32.202Z,52.60
2018-05-29T10:34:37.097Z,52.60
2018-05-29T10:35:41.961Z,52.70
2018-05-29T10:36:46.922Z,52.70
2018-05-29T10:37:51.926Z,52.70
2018-05-29T10:38:56.949Z,52.70
2018-05-29T10:40:01.830Z,52.70
2018-05-29T10:41:06.795Z,52.80
2018-05-29T10:42:11.572Z,52.80
2018-05-29T10:43:16.430Z,52.80
2018-05-29T10:44:21.309Z,52.80
2018-05-29T10:45:26.232Z,52.80
2018-05-29T10:46:30.939Z,52.80
2018-05-29T10:47:35.626Z,52.80
2018-05-29T10:48:40.310Z,52.80
2018-05-29T10:49:45.071Z,52.80
2018-05-29T10:50:50.056Z,52.80
2018-05-29T10:51:55.056Z,52.80
2018-05-29T10:52:59.682Z,52.90
2018-05-29T10:54:04.413Z,52.80
2018-05-29T10:55:09.107Z,52.80
2018-05-29T10:56:14.104Z,52.80
2018-05-29T10:57:18.889Z,52.80
2018-05-29T10:58:23.645Z,52.80
2018-05-29T10:59:28.499Z,52.80
2018-05-29T11:00:33.319Z,52.80
2018-05-29T11:01:38.121Z,52.80
2018-05-29T11:02:42.795Z,52.80
2018-05-29T11:03:47.515Z,52.90
2018-05-29T11:04:52.494Z,52.80
2018-05-29T11:05:57.796Z,52.80
2018-05-29T11:07:02.872Z,52.80
2018-05-29T11:08:07.847Z,52.80
2018-05-29T11:09:13.044Z,52.80
2018-05-29T11:10:17.872Z,52.80
2018-05-29T11:11:22.716Z,52.70
2018-05-29T11:12:27.786Z,52.70
2018-05-29T11:13:32.746Z,52.70
2018-05-29T11:14:37.698Z,52.70
2018-05-29T11:15:42.384Z,52.70
2018-05-29T11:16:47.162Z,52.70
2018-05-29T11:17:52.028Z,52.80
2018-05-29T11:18:56.846Z,52.80
2018-05-29T11:20:01.718Z,52.70
2018-05-29T11:21:06.739Z,52.80
2018-05-29T11:22:11.913Z,52.70
2018-05-29T11:23:16.605Z,52.70
2018-05-29T11:24:21.338Z,52.70
2018-05-29T11:25:26.101Z,52.80
2018-05-29T11:26:31.126Z,52.70
2018-05-29T11:27:36.258Z,52.70
2018-05-29T11:28:41.177Z,52.80
2018-05-29T11:29:45.926Z,52.70
2018-05-29T11:30:50.620Z,52.80
2018-05-29T11:31:55.515Z,52.80
2018-05-29T11:33:00.318Z,52.80
2018-05-29T11:34:05.147Z,52.90
2018-05-29T11:35:10.064Z,52.80
2018-05-29T11:36:14.964Z,52.80
2018-05-29T11:37:19.974Z,52.80
2018-05-29T11:38:24.924Z,52.80
2018-05-29T11:39:29.737Z,52.70
2018-05-29T11:40:34.436Z,52.70
2018-05-29T11:41:39.448Z,52.70
2018-05-29T11:42:44.280Z,52.70
2018-05-29T11:43:49.260Z,52.70
2018-05-29T11:44:53.961Z,52.70
2018-05-29T11:45:58.685Z,52.70
2018-05-29T11:47:03.410Z,52.70
2018-05-29T11:48:08.167Z,52.60
2018-05-29T11:49:12.984Z,52.70
2018-05-29T11:50:17.636Z,52.80
2018-05-29T11:51:22.547Z,52.70
2018-05-29T11:52:27.510Z,52.80
2018-05-29T11:53:32.494Z,52.70
2018-05-29T11:54:37.363Z,52.80
2018-05-29T11:55:42.221Z,52.80
2018-05-29T11:56:47.091Z,52.80
2018-05-29T11:57:51.959Z,52.80
2018-05-29T11:58:56.648Z,52.80
2018-05-29T12:00:01.335Z,52.80
2018-05-29T12:01:06.136Z,52.80
2018-05-29T12:02:11.042Z,52.80
2018-05-29T12:03:15.950Z,52.90
2018-05-29T12:04:20.940Z,52.90
2018-05-29T12:05:25.644Z,52.80
2018-05-29T12:06:30.480Z,52.80
2018-05-29T12:07:35.598Z,52.90
2018-05-29T12:08:40.616Z,52.90
2018-05-29T12:09:45.677Z,52.90
2018-05-29T12:10:50.745Z,52.90
2018-05-29T12:11:55.745Z,52.90
2018-05-29T12:13:00.785Z,52.90
2018-05-29T12:14:05.527Z,52.90
2018-05-29T12:15:10.404Z,52.90
2018-05-29T12:16:15.102Z,52.90
2018-05-29T12:17:20.036Z,53.00
2018-05-29T12:18:25.192Z,53.00
2018-05-29T12:19:30.023Z,53.00
2018-05-29T12:20:34.951Z,53.00
2018-05-29T12:21:39.614Z,53.00
2018-05-29T12:22:44.644Z,53.00
2018-05-29T12:23:49.486Z,53.00
2018-05-29T12:24:54.455Z,53.00
2018-05-29T12:25:59.069Z,53.10
2018-05-29T12:27:03.725Z,53.00
2018-05-29T12:28:08.498Z,53.00
2018-05-29T12:29:13.190Z,53.00
2018-05-29T12:30:17.905Z,53.00
2018-05-29T12:31:22.894Z,53.00
2018-05-29T12:32:27.610Z,53.00
2018-05-29T12:33:32.558Z,53.10
2018-05-29T12:34:37.589Z,53.00
2018-05-29T12:35:42.670Z,53.00
2018-05-29T12:36:47.543Z,53.00
2018-05-29T12:37:52.173Z,53.10
2018-05-29T12:38:57.075Z,53.00
2018-05-29T12:40:01.886Z,53.00
2018-05-29T12:41:06.667Z,53.10
2018-05-29T12:42:11.456Z,53.00
2018-05-29T12:43:16.332Z,53.10
2018-05-29T12:44:21.049Z,53.00
2018-05-29T12:45:25.799Z,53.00
2018-05-29T12:46:30.854Z,53.00
2018-05-29T12:47:35.837Z,53.10
2018-05-29T12:48:40.744Z,53.10
2018-05-29T12:49:45.590Z,53.10
2018-05-29T12:50:50.667Z,53.10
2018-05-29T12:51:55.845Z,53.10
2018-05-29T12:53:00.859Z,53.10
2018-05-29T12:54:05.703Z,53.00
2018-05-29T12:55:10.565Z,53.10
2018-05-29T12:56:15.723Z,53.00
2018-05-29T12:57:20.745Z,53.10
2018-05-29T12:58:25.797Z,53.00
2018-05-29T12:59:30.770Z,53.10
2018-05-29T13:00:35.671Z,53.10
2018-05-29T13:01:40.733Z,53.10
2018-05-29T13:02:45.636Z,53.00
2018-05-29T13:03:50.379Z,53.10
2018-05-29T13:04:55.088Z,53.00
2018-05-29T13:05:59.792Z,53.10
2018-05-29T13:07:04.696Z,53.10
2018-05-29T13:08:10.213Z,53.00
2018-05-29T13:09:15.108Z,53.00
2018-05-29T13:10:20.125Z,53.00
2018-05-29T13:11:24.853Z,53.10
2018-05-29T13:12:29.602Z,53.00
2018-05-29T13:13:34.248Z,53.10
2018-05-29T13:14:39.182Z,53.00
2018-05-29T13:15:44.140Z,53.00
2018-05-29T13:16:49.550Z,52.90
2018-05-29T13:17:54.275Z,52.90
2018-05-29T13:18:59.084Z,52.90
2018-05-29T13:20:03.952Z,52.90
2018-05-29T13:21:08.666Z,52.90
2018-05-29T13:22:13.632Z,52.90
2018-05-29T13:23:18.391Z,52.90
2018-05-29T13:24:23.389Z,52.90
2018-05-29T13:25:28.152Z,52.90
2018-05-29T13:26:33.384Z,52.90
2018-05-29T13:27:38.889Z,52.90
2018-05-29T13:28:43.703Z,52.90
2018-05-29T13:29:48.453Z,53.00
2018-05-29T13:30:53.618Z,53.00
2018-05-29T13:31:58.705Z,53.00
2018-05-29T13:33:03.479Z,53.00
2018-05-29T13:34:08.602Z,53.00
2018-05-29T13:35:13.695Z,53.00
2018-05-29T13:36:18.753Z,53.00
2018-05-29T13:37:23.696Z,53.00
2018-05-29T13:38:28.774Z,53.00
2018-05-29T13:39:33.650Z,53.00
2018-05-29T13:40:38.697Z,53.00
2018-05-29T13:41:43.449Z,53.00
2018-05-29T13:42:48.508Z,53.10
2018-05-29T13:43:53.238Z,53.10
2018-05-29T13:44:57.924Z,53.10
2018-05-29T13:46:03.074Z,53.10
2018-05-29T13:47:07.794Z,53.10
2018-05-29T13:48:12.677Z,53.10
2018-05-29T13:49:17.705Z,53.10
2018-05-29T13:50:22.825Z,53.10
2018-05-29T13:51:27.810Z,53.10
2018-05-29T13:52:32.550Z,53.00
2018-05-29T13:53:37.437Z,53.00
2018-05-29T13:54:42.426Z,53.00
2018-05-29T13:55:47.465Z,53.00